createdAt,value
2017-07-22T00:01:45.791Z,88.70
2017-07-22T00:04:13.375Z,88.90
2017-07-22T00:06:40.932Z,88.70
2017-07-22T00:09:08.508Z,89.10
2017-07-22T00:11:36.039Z,88.90
2017-07-22T00:14:03.612Z,88.80
2017-07-22T00:16:31.139Z,88.80
2017-07-22T00:18:59.468Z,89.20
2017-07-22T00:21:27.002Z,89.10
2017-07-22T00:23:54.618Z,89.10
2017-07-22T00:26:22.185Z,89.20
2017-07-22T00:28:49.763Z,89.30
2017-07-22T00:31:17.505Z,89.30
2017-07-22T00:33:45.088Z,89.00
2017-07-22T00:36:12.648Z,88.90
2017-07-22T00:38:40.215Z,89.10
2017-07-22T00:41:07.747Z,89.10
2017-07-22T00:43:35.320Z,89.60
2017-07-22T00:46:02.850Z,89.10
2017-07-22T00:48:30.420Z,89.50
2017-07-22T00:50:57.955Z,89.50
2017-07-22T00:53:25.523Z,89.40
2017-07-22T00:55:53.076Z,89.60
2017-07-22T00:58:21.452Z,89.50
2017-07-22T01:00:49.051Z,89.40
2017-07-22T01:03:16.691Z,89.20
2017-07-22T01:05:44.261Z,89.10
2017-07-22T01:08:12.619Z,88.50
2017-07-22T01:10:40.471Z,88.50
2017-07-22T01:13:08.040Z,88.70
2017-07-22T01:15:35.575Z,88.50
2017-07-22T01:18:03.148Z,88.20
2017-07-22T01:20:30.678Z,88.40
2017-07-22T01:22:59.003Z,87.90
2017-07-22T01:25:26.540Z,87.80
2017-07-22T01:27:54.131Z,88.20
2017-07-22T01:30:22.435Z,88.30
2017-07-22T01:32:50.119Z,88.20
2017-07-22T01:35:17.757Z,88.50
2017-07-22T01:37:45.463Z,88.00
2017-07-22T01:40:13.056Z,88.20
2017-07-22T01:42:40.599Z,88.80
2017-07-22T01:45:08.174Z,89.00
2017-07-22T01:47:36.471Z,87.70
2017-07-22T01:50:04.040Z,88.30
2017-07-22T01:52:31.586Z,88.90
2017-07-22T01:54:59.159Z,88.80
2017-07-22T01:57:26.687Z,89.10
2017-07-22T01:59:54.283Z,89.10
2017-07-22T02:02:21.867Z,88.40
2017-07-22T02:04:49.555Z,87.90
2017-07-22T02:07:17.254Z,87.90
2017-07-22T02:09:44.899Z,88.00
2017-07-22T02:12:12.491Z,88.50
2017-07-22T02:14:40.019Z,88.80
2017-07-22T02:17:07.583Z,87.70
2017-07-22T02:19:35.106Z,87.10
2017-07-22T02:22:02.664Z,87.50
2017-07-22T02:24:30.203Z,87.70
2017-07-22T02:26:57.735Z,87.80
2017-07-22T02:29:25.344Z,87.70
2017-07-22T02:31:52.908Z,87.90
2017-07-22T02:34:20.555Z,88.00
2017-07-22T02:36:48.172Z,88.30
2017-07-22T02:39:15.905Z,88.20
2017-07-22T02:41:43.771Z,88.20
2017-07-22T02:44:11.390Z,88.30
2017-07-22T02:46:39.703Z,88.60
2017-07-22T02:49:07.235Z,88.50
2017-07-22T02:51:34.796Z,88.50
2017-07-22T02:54:02.324Z,88.50
2017-07-22T02:56:29.883Z,88.80
2017-07-22T02:58:57.407Z,89.10
2017-07-22T03:01:25.010Z,88.50
2017-07-22T03:03:53.546Z,88.60
2017-07-22T03:06:21.263Z,88.40
2017-07-22T03:08:48.849Z,88.20
2017-07-22T03:11:16.560Z,88.60
2017-07-22T03:13:44.165Z,88.60
2017-07-22T03:16:12.530Z,89.10
2017-07-22T03:18:40.055Z,88.00
2017-07-22T03:21:07.582Z,88.20
2017-07-22T03:23:35.147Z,88.40
2017-07-22T03:26:02.707Z,88.40
2017-07-22T03:28:30.279Z,88.20
2017-07-22T03:30:58.593Z,88.10
2017-07-22T03:33:26.652Z,88.00
2017-07-22T03:35:54.393Z,87.80
2017-07-22T03:38:22.031Z,88.10
2017-07-22T03:40:49.878Z,88.50
2017-07-22T03:43:17.914Z,88.70
2017-07-22T03:45:46.885Z,88.80
2017-07-22T03:48:15.908Z,88.60
2017-07-22T03:50:43.477Z,88.80
2017-07-22T03:53:11.123Z,89.20
2017-07-22T03:55:38.651Z,89.00
2017-07-22T03:58:06.207Z,89.00
2017-07-22T04:00:33.741Z,88.50
2017-07-22T04:03:01.304Z,88.20
2017-07-22T04:05:28.856Z,88.70
2017-07-22T04:07:56.553Z,88.90
2017-07-22T04:10:24.162Z,88.60
2017-07-22T04:12:52.571Z,88.80
2017-07-22T04:15:20.564Z,88.80
2017-07-22T04:17:49.016Z,88.60
2017-07-22T04:20:16.946Z,89.00
2017-07-22T04:22:45.191Z,89.20
2017-07-22T04:25:13.023Z,89.10
2017-07-22T04:27:41.355Z,89.10
2017-07-22T04:30:09.355Z,89.00
2017-07-22T04:32:36.932Z,89.20
2017-07-22T04:35:04.459Z,89.50
2017-07-22T04:37:32.051Z,89.70
2017-07-22T04:39:59.579Z,89.50
2017-07-22T04:42:27.112Z,89.70
2017-07-22T04:44:54.688Z,89.90
2017-07-22T04:47:22.291Z,89.40
2017-07-22T04:49:49.879Z,89.60
2017-07-22T04:52:17.454Z,89.60
2017-07-22T04:54:45.049Z,89.90
2017-07-22T04:57:12.579Z,89.50
2017-07-22T04:59:40.147Z,89.20
2017-07-22T05:02:07.687Z,89.50
2017-07-22T05:04:35.260Z,89.60
2017-07-22T05:07:02.799Z,89.70
2017-07-22T05:09:30.367Z,89.80
2017-07-22T05:11:58.663Z,90.00
2017-07-22T05:14:26.243Z,90.00
2017-07-22T05:16:53.785Z,90.00
2017-07-22T05:19:21.371Z,90.10
2017-07-22T05:21:48.915Z,90.20
2017-07-22T05:24:16.523Z,90.50
2017-07-22T05:26:44.065Z,90.30
2017-07-22T05:29:11.598Z,90.00
2017-07-22T05:31:39.162Z,89.80
2017-07-22T05:34:06.696Z,89.90
2017-07-22T05:36:34.267Z,89.90
2017-07-22T05:39:01.844Z,90.50
2017-07-22T05:41:29.407Z,90.20
2017-07-22T05:43:57.082Z,89.80
2017-07-22T05:46:24.684Z,89.60
2017-07-22T05:48:52.222Z,88.80
2017-07-22T05:51:19.791Z,88.70
2017-07-22T05:53:47.524Z,88.90
2017-07-22T05:56:15.106Z,89.10
2017-07-22T05:58:42.635Z,89.90
2017-07-22T06:01:10.207Z,89.20
2017-07-22T06:03:37.736Z,89.10
2017-07-22T06:06:05.307Z,89.40
2017-07-22T06:08:32.840Z,88.70
2017-07-22T06:11:00.407Z,88.30
2017-07-22T06:13:28.708Z,87.90
2017-07-22T06:15:56.286Z,88.60
2017-07-22T06:18:23.823Z,88.30
2017-07-22T06:20:51.392Z,88.10
2017-07-22T06:23:18.923Z,87.50
2017-07-22T06:25:46.494Z,87.40
2017-07-22T06:28:14.027Z,86.80
2017-07-22T06:30:41.611Z,86.10
2017-07-22T06:33:09.147Z,85.90
2017-07-22T06:35:37.479Z,86.50
2017-07-22T06:38:05.013Z,86.50
2017-07-22T06:40:32.591Z,86.30
2017-07-22T06:43:00.891Z,85.80
2017-07-22T06:45:28.469Z,85.60
2017-07-22T06:47:56.027Z,84.30
2017-07-22T06:50:23.610Z,83.80
2017-07-22T06:52:51.151Z,84.60
2017-07-22T06:55:18.737Z,81.80
2017-07-22T06:57:46.314Z,80.40
2017-07-22T07:00:15.651Z,80.00
2017-07-22T07:02:43.217Z,79.90
2017-07-22T07:05:10.801Z,78.60
2017-07-22T07:07:39.113Z,79.20
2017-07-22T07:10:06.650Z,79.00
2017-07-22T07:12:34.224Z,80.40
2017-07-22T07:15:01.762Z,78.10
2017-07-22T07:17:29.334Z,79.80
2017-07-22T07:19:56.871Z,80.60
2017-07-22T07:22:24.448Z,81.90
2017-07-22T07:24:51.992Z,80.00
2017-07-22T07:27:19.572Z,81.20
2017-07-22T07:29:47.122Z,81.30
2017-07-22T07:32:14.721Z,81.10
2017-07-22T07:34:42.271Z,79.80
2017-07-22T07:37:09.812Z,79.40
2017-07-22T07:39:38.147Z,75.10
2017-07-22T07:42:05.683Z,75.00
2017-07-22T07:44:33.269Z,77.90
2017-07-22T07:47:00.823Z,81.80
2017-07-22T07:49:28.397Z,70.40
2017-07-22T07:51:55.928Z,68.70
2017-07-22T07:54:23.512Z,73.70
2017-07-22T07:56:51.099Z,72.60
2017-07-22T07:59:18.700Z,68.80
2017-07-22T08:01:46.248Z,74.70
2017-07-22T08:04:13.819Z,71.90
2017-07-22T08:06:41.411Z,66.40
2017-07-22T08:09:08.975Z,66.30
2017-07-22T08:11:36.516Z,65.80
2017-07-22T08:14:04.092Z,65.80
2017-07-22T08:16:32.398Z,65.70
2017-07-22T08:18:59.971Z,65.10
2017-07-22T08:21:27.508Z,59.90
2017-07-22T08:23:55.091Z,58.50
2017-07-22T08:26:23.400Z,60.60
2017-07-22T08:28:51.033Z,61.00
2017-07-22T08:31:18.603Z,58.60
2017-07-22T08:33:46.188Z,56.40
2017-07-22T08:36:13.724Z,57.70
2017-07-22T08:38:41.291Z,56.60
2017-07-22T08:41:09.601Z,56.50
2017-07-22T08:43:37.182Z,56.40
2017-07-22T08:46:04.719Z,56.90
2017-07-22T08:48:32.293Z,55.30
2017-07-22T08:50:59.828Z,55.00
2017-07-22T08:53:28.164Z,55.20
2017-07-22T08:55:55.700Z,55.20
2017-07-22T08:58:23.260Z,55.90
2017-07-22T09:00:50.792Z,57.80
2017-07-22T09:03:18.367Z,56.60
2017-07-22T09:05:45.903Z,55.60
2017-07-22T09:08:13.480Z,54.80
2017-07-22T09:10:41.015Z,56.40
2017-07-22T09:13:08.595Z,53.60
2017-07-22T09:15:36.120Z,53.40
2017-07-22T09:18:03.691Z,53.40
2017-07-22T09:20:31.255Z,55.50
2017-07-22T09:22:58.819Z,52.80
2017-07-22T09:25:26.991Z,52.60
2017-07-22T09:27:54.567Z,53.60
2017-07-22T09:30:22.100Z,53.70
2017-07-22T09:32:49.676Z,52.20
2017-07-22T09:35:17.220Z,51.70
2017-07-22T09:37:44.799Z,53.50
2017-07-22T09:40:12.335Z,52.80
2017-07-22T09:42:39.903Z,51.70
2017-07-22T09:45:07.443Z,51.20
2017-07-22T09:47:35.002Z,50.80
2017-07-22T09:50:02.546Z,50.40
2017-07-22T09:52:30.876Z,49.00
2017-07-22T09:54:58.451Z,49.00
2017-07-22T09:57:26.782Z,48.50
2017-07-22T09:59:54.316Z,48.40
2017-07-22T10:02:22.603Z,49.30
2017-07-22T10:04:50.135Z,50.00
2017-07-22T10:07:17.706Z,48.80
2017-07-22T10:09:46.102Z,48.80
2017-07-22T10:12:13.664Z,48.80
2017-07-22T10:14:41.217Z,48.70
2017-07-22T10:17:08.790Z,49.10
2017-07-22T10:19:36.312Z,49.20
2017-07-22T10:22:03.964Z,52.60
2017-07-22T10:24:32.331Z,48.30
2017-07-22T10:26:59.907Z,48.30
2017-07-22T10:29:28.207Z,49.00
2017-07-22T10:31:55.776Z,48.90
2017-07-22T10:34:23.307Z,48.90
2017-07-22T10:36:51.709Z,49.40
2017-07-22T10:39:19.248Z,48.80
2017-07-22T10:41:46.811Z,48.80
2017-07-22T10:44:14.340Z,48.30
2017-07-22T10:46:41.908Z,49.40
2017-07-22T10:49:10.203Z,48.90
2017-07-22T10:51:37.768Z,48.90
2017-07-22T10:54:05.293Z,48.10
2017-07-22T10:56:32.859Z,50.20
2017-07-22T10:59:00.399Z,46.60
2017-07-22T11:01:27.965Z,46.50
2017-07-22T11:03:55.507Z,48.30
2017-07-22T11:06:23.085Z,46.50
2017-07-22T11:08:51.391Z,47.80
2017-07-22T11:11:18.971Z,47.70
2017-07-22T11:13:46.503Z,46.00
2017-07-22T11:16:14.087Z,46.50
2017-07-22T11:18:41.643Z,47.10
2017-07-22T11:21:09.177Z,47.10
2017-07-22T11:23:37.515Z,46.90
2017-07-22T11:26:05.036Z,46.90
2017-07-22T11:28:32.611Z,47.10
2017-07-22T11:31:00.135Z,45.70
2017-07-22T11:33:27.702Z,47.00
2017-07-22T11:35:55.239Z,48.80
2017-07-22T11:38:22.823Z,47.90
2017-07-22T11:40:50.357Z,47.30
2017-07-22T11:43:17.931Z,46.10
2017-07-22T11:45:45.471Z,46.50
2017-07-22T11:48:13.046Z,45.70
2017-07-22T11:50:40.575Z,45.80
2017-07-22T11:53:08.135Z,44.60
2017-07-22T11:55:35.671Z,46.20
2017-07-22T11:58:03.256Z,45.00
2017-07-22T12:00:30.837Z,46.30
2017-07-22T12:02:58.449Z,47.10
2017-07-22T12:05:26.027Z,46.90
2017-07-22T12:07:53.639Z,46.00
2017-07-22T12:10:21.176Z,46.90
2017-07-22T12:12:48.759Z,47.10
2017-07-22T12:15:16.314Z,48.40
2017-07-22T12:17:43.898Z,47.00
2017-07-22T12:20:11.427Z,45.50
2017-07-22T12:22:38.955Z,45.60
2017-07-22T12:25:06.519Z,45.70
2017-07-22T12:27:34.095Z,46.50
2017-07-22T12:30:01.627Z,45.80
2017-07-22T12:32:29.199Z,46.20
2017-07-22T12:34:57.503Z,45.50
2017-07-22T12:37:25.084Z,45.20
2017-07-22T12:39:52.623Z,45.40
2017-07-22T12:42:20.173Z,45.60
2017-07-22T12:44:47.749Z,45.90
2017-07-22T12:47:16.171Z,46.60
2017-07-22T12:49:43.819Z,46.50
2017-07-22T12:52:11.355Z,45.60
2017-07-22T12:54:38.943Z,44.70
2017-07-22T12:57:07.255Z,43.60
2017-07-22T12:59:34.836Z,43.60
2017-07-22T13:02:02.375Z,42.30
2017-07-22T13:04:29.950Z,43.30
2017-07-22T13:06:58.266Z,41.50
2017-07-22T13:09:25.843Z,41.50
2017-07-22T13:11:53.379Z,40.20
2017-07-22T13:14:20.947Z,40.30
2017-07-22T13:16:49.791Z,40.30
2017-07-22T13:19:17.371Z,40.20
2017-07-22T13:21:45.700Z,40.30
2017-07-22T13:24:13.292Z,40.20
2017-07-22T13:26:40.862Z,41.50
2017-07-22T13:29:08.408Z,40.20
2017-07-22T13:31:35.979Z,41.40
2017-07-22T13:34:03.507Z,41.60
2017-07-22T13:36:31.083Z,41.10
2017-07-22T13:38:58.624Z,41.90
2017-07-22T13:41:26.197Z,43.80
2017-07-22T13:43:53.735Z,42.40
2017-07-22T13:46:21.307Z,44.10
2017-07-22T13:48:48.847Z,43.70
2017-07-22T13:51:16.456Z,44.80
2017-07-22T13:53:43.991Z,43.70
2017-07-22T13:56:11.575Z,44.40
2017-07-22T13:58:39.181Z,43.20
2017-07-22T14:01:06.711Z,44.20
2017-07-22T14:03:34.275Z,50.40
2017-07-22T14:06:01.813Z,51.60
2017-07-22T14:08:29.390Z,45.10
2017-07-22T14:10:56.932Z,46.50
2017-07-22T14:13:24.512Z,44.60
2017-07-22T14:15:52.052Z,44.30
2017-07-22T14:18:19.647Z,45.40
2017-07-22T14:20:47.191Z,45.50
2017-07-22T14:23:14.778Z,47.40
2017-07-22T14:25:43.081Z,44.70
2017-07-22T14:28:10.656Z,44.60
2017-07-22T14:30:38.190Z,45.20
2017-07-22T14:33:05.768Z,45.30
2017-07-22T14:35:33.312Z,43.50
2017-07-22T14:38:01.654Z,44.40
2017-07-22T14:40:29.196Z,44.40
2017-07-22T14:42:56.792Z,43.40
2017-07-22T14:45:24.338Z,43.60
2017-07-22T14:47:51.880Z,43.30
2017-07-22T14:50:19.454Z,42.90
2017-07-22T14:52:47.011Z,43.50
2017-07-22T14:55:14.582Z,41.90
2017-07-22T14:57:42.882Z,41.70
2017-07-22T15:00:10.447Z,41.10
2017-07-22T15:02:37.979Z,39.90
2017-07-22T15:05:05.559Z,38.80
2017-07-22T15:07:33.092Z,36.90
2017-07-22T15:10:00.619Z,36.60
2017-07-22T15:12:28.180Z,37.50
2017-07-22T15:14:55.725Z,39.70
2017-07-22T15:17:23.299Z,37.50
2017-07-22T15:19:50.859Z,33.70
2017-07-22T15:22:19.227Z,37.50
2017-07-22T15:24:47.561Z,40.70
2017-07-22T15:27:15.123Z,40.60
2017-07-22T15:29:43.476Z,38.70
2017-07-22T15:32:11.003Z,38.70
2017-07-22T15:34:38.574Z,30.90
2017-07-22T15:37:06.112Z,32.80
2017-07-22T15:39:33.671Z,33.90
2017-07-22T15:42:01.971Z,37.80
2017-07-22T15:44:29.540Z,37.90
2017-07-22T15:46:57.072Z,42.10
2017-07-22T15:49:24.663Z,43.40
2017-07-22T15:51:52.187Z,45.50
2017-07-22T15:54:19.721Z,48.00
2017-07-22T15:56:47.315Z,48.20
2017-07-22T15:59:15.663Z,50.00
2017-07-22T16:01:44.019Z,50.80
2017-07-22T16:04:11.552Z,50.00
2017-07-22T16:06:39.122Z,51.50
2017-07-22T16:09:07.419Z,53.60
2017-07-22T16:11:34.979Z,53.50
2017-07-22T16:14:02.511Z,53.50
2017-07-22T16:16:30.084Z,57.10
2017-07-22T16:18:57.619Z,59.00
2017-07-22T16:21:25.189Z,60.80
2017-07-22T16:23:52.748Z,60.20
2017-07-22T16:26:21.098Z,63.40
2017-07-22T16:28:48.638Z,63.30
2017-07-22T16:31:16.218Z,65.20
2017-07-22T16:33:44.520Z,66.90
2017-07-22T16:36:12.099Z,66.90
2017-07-22T16:38:39.639Z,67.90
2017-07-22T16:41:07.220Z,70.40
2017-07-22T16:43:35.518Z,70.30
2017-07-22T16:46:03.087Z,70.20
2017-07-22T16:48:30.623Z,70.80
2017-07-22T16:50:58.199Z,71.70
2017-07-22T16:53:25.738Z,72.40
2017-07-22T16:55:53.315Z,73.20
2017-07-22T16:58:20.884Z,74.00
2017-07-22T17:00:48.416Z,74.40
2017-07-22T17:03:15.991Z,75.10
2017-07-22T17:05:43.523Z,75.90
2017-07-22T17:08:11.092Z,76.00
2017-07-22T17:10:38.618Z,76.20
2017-07-22T17:13:06.180Z,76.20
2017-07-22T17:15:33.718Z,76.90
2017-07-22T17:18:01.284Z,76.90
2017-07-22T17:20:28.815Z,77.20
2017-07-22T17:22:56.387Z,75.30
2017-07-22T17:25:23.916Z,75.00
2017-07-22T17:27:51.491Z,74.20
2017-07-22T17:30:19.788Z,76.00
2017-07-22T17:32:47.368Z,75.90
2017-07-22T17:35:14.901Z,75.00
2017-07-22T17:37:42.500Z,74.20
2017-07-22T17:40:10.035Z,73.50
2017-07-22T17:42:38.328Z,74.50
2017-07-22T17:45:05.903Z,74.50
2017-07-22T17:47:33.438Z,74.70
2017-07-22T17:50:01.023Z,76.20
2017-07-22T17:52:29.354Z,74.50
2017-07-22T17:54:57.638Z,74.40
2017-07-22T17:57:25.326Z,74.80
2017-07-22T17:59:52.939Z,74.80
2017-07-22T18:02:21.183Z,75.60
2017-07-22T18:04:48.750Z,75.90
2017-07-22T18:07:17.046Z,77.20
2017-07-22T18:09:44.623Z,77.10
2017-07-22T18:12:12.160Z,76.60
2017-07-22T18:14:39.773Z,76.50
2017-07-22T18:17:08.035Z,76.60
2017-07-22T18:19:35.613Z,76.20
2017-07-22T18:22:03.147Z,76.20
2017-07-22T18:24:30.723Z,76.00
2017-07-22T18:26:58.262Z,76.50
2017-07-22T18:29:25.840Z,76.80
2017-07-22T18:31:54.143Z,77.40
2017-07-22T18:34:21.712Z,77.30
2017-07-22T18:36:49.238Z,77.10
2017-07-22T18:39:16.811Z,76.90
2017-07-22T18:41:44.350Z,76.90
2017-07-22T18:44:11.931Z,77.10
2017-07-22T18:46:40.232Z,76.90
2017-07-22T18:49:07.805Z,76.90
2017-07-22T18:51:35.337Z,77.00
2017-07-22T18:54:02.903Z,77.60
2017-07-22T18:56:30.446Z,76.80
2017-07-22T18:58:58.029Z,76.90
2017-07-22T19:01:25.576Z,77.10
2017-07-22T19:03:53.154Z,77.00
2017-07-22T19:06:20.691Z,77.00
2017-07-22T19:08:48.260Z,76.60
2017-07-22T19:11:15.806Z,76.50
2017-07-22T19:13:43.376Z,77.40
2017-07-22T19:16:10.915Z,77.30
2017-07-22T19:18:38.488Z,78.60
2017-07-22T19:21:06.789Z,78.40
2017-07-22T19:23:34.369Z,78.30
2017-07-22T19:26:01.907Z,78.30
2017-07-22T19:28:29.475Z,78.30
2017-07-22T19:30:57.772Z,77.70
2017-07-22T19:33:25.344Z,77.70
2017-07-22T19:35:52.882Z,78.20
2017-07-22T19:38:20.460Z,78.00
2017-07-22T19:40:47.991Z,78.10
2017-07-22T19:43:15.579Z,77.80
2017-07-22T19:45:43.116Z,78.10
2017-07-22T19:48:10.655Z,78.40
2017-07-22T19:50:38.992Z,78.60
2017-07-22T19:53:06.520Z,78.50
2017-07-22T19:55:34.113Z,78.90
2017-07-22T19:58:02.417Z,79.40
2017-07-22T20:00:29.980Z,79.40
2017-07-22T20:02:57.523Z,79.50
2017-07-22T20:05:25.102Z,80.10
2017-07-22T20:07:53.411Z,79.90
2017-07-22T20:10:20.988Z,79.90
2017-07-22T20:12:48.526Z,79.90
2017-07-22T20:15:16.108Z,80.80
2017-07-22T20:17:44.419Z,80.30
2017-07-22T20:20:11.998Z,80.40
2017-07-22T20:22:39.539Z,80.60
2017-07-22T20:25:07.107Z,81.10
2017-07-22T20:27:34.648Z,81.00
2017-07-22T20:30:02.219Z,80.50
2017-07-22T20:32:29.760Z,79.90
2017-07-22T20:34:57.295Z,80.00
2017-07-22T20:37:24.863Z,79.80
2017-07-22T20:39:52.394Z,79.70
2017-07-22T20:42:19.982Z,80.00
2017-07-22T20:44:47.523Z,80.30
2017-07-22T20:47:15.124Z,81.20
2017-07-22T20:49:42.664Z,81.10
2017-07-22T20:52:10.260Z,81.70
2017-07-22T20:54:37.787Z,81.00
2017-07-22T20:57:05.356Z,80.80
2017-07-22T20:59:32.960Z,80.40
2017-07-22T21:02:00.526Z,80.10
2017-07-22T21:04:28.071Z,79.90
2017-07-22T21:06:55.659Z,79.70
2017-07-22T21:09:23.971Z,80.30
2017-07-22T21:11:51.562Z,80.30
2017-07-22T21:14:19.892Z,79.10
2017-07-22T21:16:47.484Z,79.10
2017-07-22T21:19:15.794Z,78.40
2017-07-22T21:21:43.358Z,78.20
2017-07-22T21:24:10.926Z,78.80
2017-07-22T21:26:38.511Z,79.10
2017-07-22T21:29:06.047Z,79.40
2017-07-22T21:31:33.628Z,79.60
2017-07-22T21:34:01.169Z,80.30
2017-07-22T21:36:28.709Z,80.50
2017-07-22T21:41:30.175Z,79.80
2017-07-22T21:43:57.712Z,79.80
2017-07-22T21:46:25.249Z,79.90
2017-07-22T21:48:52.832Z,80.20
2017-07-22T21:51:21.148Z,80.90
2017-07-22T21:53:48.734Z,80.80
2017-07-22T21:56:16.280Z,80.10
2017-07-22T21:58:43.860Z,79.50
2017-07-22T22:01:11.421Z,79.90
2017-07-22T22:03:38.990Z,79.00
2017-07-22T22:06:06.524Z,78.90
2017-07-22T22:08:34.101Z,79.60
2017-07-22T22:11:01.642Z,79.50
2017-07-22T22:13:29.211Z,79.40
2017-07-22T22:15:57.511Z,80.00
2017-07-22T22:18:25.088Z,80.00
2017-07-22T22:20:52.633Z,79.90
2017-07-22T22:23:20.239Z,80.30
2017-07-22T22:25:47.782Z,80.10
2017-07-22T22:28:15.315Z,80.00
2017-07-22T22:30:42.879Z,80.10
2017-07-22T22:33:10.419Z,79.60
2017-07-22T22:35:37.993Z,79.20
2017-07-22T22:38:05.530Z,79.00
2017-07-22T22:40:33.099Z,78.70
2017-07-22T22:43:00.630Z,79.50
2017-07-22T22:45:28.199Z,80.30
2017-07-22T22:47:56.509Z,81.40
2017-07-22T22:50:24.079Z,81.40
2017-07-22T22:52:51.616Z,82.60
2017-07-22T22:55:19.192Z,83.80
2017-07-22T22:57:46.770Z,84.10
2017-07-22T23:00:14.339Z,84.60
2017-07-22T23:02:41.872Z,84.40
2017-07-22T23:05:09.446Z,84.20
2017-07-22T23:07:36.971Z,84.50
2017-07-22T23:10:04.543Z,85.80
2017-07-22T23:12:32.071Z,86.20
2017-07-22T23:14:59.644Z,86.40
2017-07-22T23:17:27.179Z,86.80
2017-07-22T23:19:54.751Z,86.90
2017-07-22T23:22:23.096Z,86.30
2017-07-22T23:24:50.627Z,87.00
2017-07-22T23:27:18.191Z,87.40
2017-07-22T23:29:45.737Z,87.70
2017-07-22T23:32:13.315Z,87.90
2017-07-22T23:34:40.851Z,87.70
2017-07-22T23:37:09.191Z,88.20
2017-07-22T23:39:36.728Z,88.10
2017-07-22T23:42:04.279Z,88.10
2017-07-22T23:44:31.855Z,88.10
2017-07-22T23:47:00.161Z,88.00
2017-07-22T23:49:27.732Z,88.00
2017-07-22T23:51:55.261Z,87.90
2017-07-22T23:54:22.822Z,88.00
2017-07-22T23:56:50.360Z,87.40
2017-07-22T23:59:17.943Z,86.80
